sensor_id;sensor_type;location;lat;lon;timestamp;temperature;humidity
11087;DHT22;5597;47.588;9.642;2022-07-23T00:00:30;21.00;99.90
11087;DHT22;5597;47.588;9.642;2022-07-23T00:02:56;20.90;99.90
11087;DHT22;5597;47.588;9.642;2022-07-23T00:05:21;20.80;99.90
11087;DHT22;5597;47.588;9.642;2022-07-23T00:07:47;20.80;99.90
11087;DHT22;5597;47.588;9.642;2022-07-23T00:10:12;20.90;99.90
11087;DHT22;5597;47.588;9.642;2022-07-23T00:12:38;20.90;99.90
11087;DHT22;5597;47.588;9.642;2022-07-23T00:15:05;21.00;99.90
11087;DHT22;5597;47.588;9.642;2022-07-23T00:17:31;21.00;99.90
11087;DHT22;5597;47.588;9.642;2022-07-23T00:19:56;21.00;99.90
11087;DHT22;5597;47.588;9.642;2022-07-23T00:22:22;21.00;99.90
11087;DHT22;5597;47.588;9.642;2022-07-23T00:24:48;20.90;99.90
11087;DHT22;5597;47.588;9.642;2022-07-23T00:27:13;20.90;99.90
11087;DHT22;5597;47.588;9.642;2022-07-23T00:29:39;20.90;99.90
11087;DHT22;5597;47.588;9.642;2022-07-23T00:32:05;20.90;99.90
11087;DHT22;5597;47.588;9.642;2022-07-23T00:34:30;20.80;99.90
11087;DHT22;5597;47.588;9.642;2022-07-23T00:36:56;20.80;99.90
11087;DHT22;5597;47.588;9.642;2022-07-23T00:39:22;20.70;99.90
11087;DHT22;5597;47.588;9.642;2022-07-23T00:41:49;20.70;99.90
11087;DHT22;5597;47.588;9.642;2022-07-23T00:44:26;20.60;99.90
11087;DHT22;5597;47.588;9.642;2022-07-23T00:46:53;20.60;99.90
11087;DHT22;5597;47.588;9.642;2022-07-23T00:49:21;20.50;99.90
11087;DHT22;5597;47.588;9.642;2022-07-23T00:51:48;20.50;99.90
11087;DHT22;5597;47.588;9.642;2022-07-23T00:54:15;20.40;99.90
11087;DHT22;5597;47.588;9.642;2022-07-23T00:56:42;20.30;99.90
11087;DHT22;5597;47.588;9.642;2022-07-23T00:59:08;20.30;99.90
11087;DHT22;5597;47.588;9.642;2022-07-23T01:01:34;20.20;99.90
11087;DHT22;5597;47.588;9.642;2022-07-23T01:03:59;20.10;99.90
11087;DHT22;5597;47.588;9.642;2022-07-23T01:06:25;20.00;99.90
11087;DHT22;5597;47.588;9.642;2022-07-23T01:08:51;19.90;99.90
11087;DHT22;5597;47.588;9.642;2022-07-23T01:11:18;19.80;99.90
11087;DHT22;5597;47.588;9.642;2022-07-23T01:13:44;19.60;99.90
11087;DHT22;5597;47.588;9.642;2022-07-23T01:16:09;19.60;99.90
11087;DHT22;5597;47.588;9.642;2022-07-23T01:18:35;19.50;99.90
11087;DHT22;5597;47.588;9.642;2022-07-23T01:21:01;19.40;99.90
11087;DHT22;5597;47.588;9.642;2022-07-23T01:23:26;19.40;99.90
11087;DHT22;5597;47.588;9.642;2022-07-23T01:25:53;19.40;99.90
11087;DHT22;5597;47.588;9.642;2022-07-23T01:28:19;19.40;99.90
11087;DHT22;5597;47.588;9.642;2022-07-23T01:30:47;19.40;99.90
11087;DHT22;5597;47.588;9.642;2022-07-23T01:33:13;19.40;99.90
11087;DHT22;5597;47.588;9.642;2022-07-23T01:35:38;19.30;99.90
11087;DHT22;5597;47.588;9.642;2022-07-23T01:38:04;19.30;99.90
11087;DHT22;5597;47.588;9.642;2022-07-23T01:40:30;19.20;99.90
11087;DHT22;5597;47.588;9.642;2022-07-23T01:42:55;19.20;99.90
11087;DHT22;5597;47.588;9.642;2022-07-23T01:45:21;19.10;99.90
11087;DHT22;5597;47.588;9.642;2022-07-23T01:47:47;19.10;99.90
11087;DHT22;5597;47.588;9.642;2022-07-23T01:50:13;19.00;99.90
11087;DHT22;5597;47.588;9.642;2022-07-23T01:52:39;19.00;99.90
11087;DHT22;5597;47.588;9.642;2022-07-23T01:55:05;19.00;99.90
11087;DHT22;5597;47.588;9.642;2022-07-23T01:57:31;18.90;99.90
11087;DHT22;5597;47.588;9.642;2022-07-23T01:59:57;18.90;99.90
11087;DHT22;5597;47.588;9.642;2022-07-23T02:02:22;18.80;99.90
11087;DHT22;5597;47.588;9.642;2022-07-23T02:04:48;18.80;99.90
11087;DHT22;5597;47.588;9.642;2022-07-23T02:07:14;18.60;99.90
11087;DHT22;5597;47.588;9.642;2022-07-23T02:09:39;18.50;99.90
11087;DHT22;5597;47.588;9.642;2022-07-23T02:12:05;18.40;99.90
11087;DHT22;5597;47.588;9.642;2022-07-23T02:14:31;18.30;99.90
11087;DHT22;5597;47.588;9.642;2022-07-23T02:16:56;18.30;99.90
11087;DHT22;5597;47.588;9.642;2022-07-23T02:19:22;18.40;99.90
11087;DHT22;5597;47.588;9.642;2022-07-23T02:21:48;18.60;99.90
11087;DHT22;5597;47.588;9.642;2022-07-23T02:24:13;18.70;99.90
11087;DHT22;5597;47.588;9.642;2022-07-23T02:26:39;18.80;99.90
11087;DHT22;5597;47.588;9.642;2022-07-23T02:29:05;19.00;99.90
11087;DHT22;5597;47.588;9.642;2022-07-23T02:31:31;19.10;99.90
11087;DHT22;5597;47.588;9.642;2022-07-23T02:33:56;19.20;99.90
11087;DHT22;5597;47.588;9.642;2022-07-23T02:36:22;19.30;99.90
11087;DHT22;5597;47.588;9.642;2022-07-23T02:38:48;19.40;99.90
11087;DHT22;5597;47.588;9.642;2022-07-23T02:41:14;19.50;99.90
11087;DHT22;5597;47.588;9.642;2022-07-23T02:43:39;19.60;99.90
11087;DHT22;5597;47.588;9.642;2022-07-23T02:46:05;19.60;99.90
11087;DHT22;5597;47.588;9.642;2022-07-23T02:48:30;19.60;99.90
11087;DHT22;5597;47.588;9.642;2022-07-23T02:50:56;19.60;99.90
11087;DHT22;5597;47.588;9.642;2022-07-23T02:53:23;19.70;99.90
11087;DHT22;5597;47.588;9.642;2022-07-23T02:55:49;19.70;99.90
11087;DHT22;5597;47.588;9.642;2022-07-23T02:58:14;19.70;99.90
11087;DHT22;5597;47.588;9.642;2022-07-23T03:00:41;19.80;99.90
11087;DHT22;5597;47.588;9.642;2022-07-23T03:03:07;19.80;99.90
11087;DHT22;5597;47.588;9.642;2022-07-23T03:05:33;19.80;99.90
11087;DHT22;5597;47.588;9.642;2022-07-23T03:07:59;19.90;99.90
11087;DHT22;5597;47.588;9.642;2022-07-23T03:10:24;19.90;99.90
11087;DHT22;5597;47.588;9.642;2022-07-23T03:12:50;19.90;99.90
11087;DHT22;5597;47.588;9.642;2022-07-23T03:15:16;19.90;99.90
11087;DHT22;5597;47.588;9.642;2022-07-23T03:17:41;19.90;99.90
11087;DHT22;5597;47.588;9.642;2022-07-23T03:20:07;20.00;99.90
11087;DHT22;5597;47.588;9.642;2022-07-23T03:22:33;20.00;99.90
11087;DHT22;5597;47.588;9.642;2022-07-23T03:24:59;20.00;99.90
11087;DHT22;5597;47.588;9.642;2022-07-23T03:27:26;20.00;99.90
11087;DHT22;5597;47.588;9.642;2022-07-23T03:29:54;20.00;99.90
11087;DHT22;5597;47.588;9.642;2022-07-23T03:32:21;20.00;99.90
11087;DHT22;5597;47.588;9.642;2022-07-23T03:34:47;20.00;99.90
11087;DHT22;5597;47.588;9.642;2022-07-23T03:37:13;20.00;99.90
11087;DHT22;5597;47.588;9.642;2022-07-23T03:39:39;20.00;99.90
11087;DHT22;5597;47.588;9.642;2022-07-23T03:42:05;20.00;99.90
11087;DHT22;5597;47.588;9.642;2022-07-23T03:44:31;20.00;99.90
11087;DHT22;5597;47.588;9.642;2022-07-23T03:46:57;20.00;99.90
11087;DHT22;5597;47.588;9.642;2022-07-23T03:49:22;20.10;99.90
11087;DHT22;5597;47.588;9.642;2022-07-23T03:51:48;20.10;99.90
11087;DHT22;5597;47.588;9.642;2022-07-23T03:54:13;20.10;99.90
11087;DHT22;5597;47.588;9.642;2022-07-23T03:56:39;20.20;99.90
11087;DHT22;5597;47.588;9.642;2022-07-23T03:59:05;20.20;99.90
11087;DHT22;5597;47.588;9.642;2022-07-23T04:01:30;20.20;99.90
11087;DHT22;5597;47.588;9.642;2022-07-23T04:03:56;20.20;99.90
11087;DHT22;5597;47.588;9.642;2022-07-23T04:06:22;20.30;99.90
11087;DHT22;5597;47.588;9.642;2022-07-23T04:08:47;20.30;99.90
11087;DHT22;5597;47.588;9.642;2022-07-23T04:11:13;20.30;99.90
11087;DHT22;5597;47.588;9.642;2022-07-23T04:13:39;20.20;99.90
11087;DHT22;5597;47.588;9.642;2022-07-23T04:16:05;20.30;99.90
11087;DHT22;5597;47.588;9.642;2022-07-23T04:18:31;20.20;99.90
11087;DHT22;5597;47.588;9.642;2022-07-23T04:20:57;20.30;99.90
11087;DHT22;5597;47.588;9.642;2022-07-23T04:23:22;20.30;99.90
11087;DHT22;5597;47.588;9.642;2022-07-23T04:25:48;20.30;99.90
11087;DHT22;5597;47.588;9.642;2022-07-23T04:28:14;20.30;99.90
11087;DHT22;5597;47.588;9.642;2022-07-23T04:30:40;20.40;99.90
11087;DHT22;5597;47.588;9.642;2022-07-23T04:33:05;20.40;99.90
11087;DHT22;5597;47.588;9.642;2022-07-23T04:35:32;20.50;99.90
11087;DHT22;5597;47.588;9.642;2022-07-23T04:37:58;20.50;99.90
11087;DHT22;5597;47.588;9.642;2022-07-23T04:40:25;20.50;99.90
11087;DHT22;5597;47.588;9.642;2022-07-23T04:42:50;20.50;99.90
11087;DHT22;5597;47.588;9.642;2022-07-23T04:45:16;20.40;99.90
11087;DHT22;5597;47.588;9.642;2022-07-23T04:47:41;20.50;99.90
11087;DHT22;5597;47.588;9.642;2022-07-23T04:50:07;20.40;99.90
11087;DHT22;5597;47.588;9.642;2022-07-23T04:52:33;20.40;99.90
11087;DHT22;5597;47.588;9.642;2022-07-23T04:54:58;20.40;99.90
11087;DHT22;5597;47.588;9.642;2022-07-23T04:57:24;20.40;99.90
11087;DHT22;5597;47.588;9.642;2022-07-23T04:59:50;20.40;99.90
11087;DHT22;5597;47.588;9.642;2022-07-23T05:02:15;20.40;99.90
11087;DHT22;5597;47.588;9.642;2022-07-23T05:04:41;20.40;99.90
11087;DHT22;5597;47.588;9.642;2022-07-23T05:07:06;20.40;99.90
11087;DHT22;5597;47.588;9.642;2022-07-23T05:09:32;20.40;99.90
11087;DHT22;5597;47.588;9.642;2022-07-23T05:11:57;20.30;99.90
11087;DHT22;5597;47.588;9.642;2022-07-23T05:14:23;20.40;99.90
11087;DHT22;5597;47.588;9.642;2022-07-23T05:16:49;20.40;99.90
11087;DHT22;5597;47.588;9.642;2022-07-23T05:19:14;20.30;99.90
11087;DHT22;5597;47.588;9.642;2022-07-23T05:21:40;20.30;99.90
11087;DHT22;5597;47.588;9.642;2022-07-23T05:24:06;20.20;99.90
11087;DHT22;5597;47.588;9.642;2022-07-23T05:26:32;20.20;99.90
11087;DHT22;5597;47.588;9.642;2022-07-23T05:28:57;20.20;99.90
11087;DHT22;5597;47.588;9.642;2022-07-23T05:31:23;20.20;99.90
11087;DHT22;5597;47.588;9.642;2022-07-23T05:33:48;20.20;99.90
11087;DHT22;5597;47.588;9.642;2022-07-23T05:36:14;20.30;99.90
11087;DHT22;5597;47.588;9.642;2022-07-23T05:38:39;20.40;99.90
11087;DHT22;5597;47.588;9.642;2022-07-23T05:41:05;20.40;99.90
11087;DHT22;5597;47.588;9.642;2022-07-23T05:43:31;20.50;99.90
11087;DHT22;5597;47.588;9.642;2022-07-23T05:45:56;20.50;99.90
11087;DHT22;5597;47.588;9.642;2022-07-23T05:48:22;20.50;99.90
11087;DHT22;5597;47.588;9.642;2022-07-23T05:50:48;20.60;99.90
11087;DHT22;5597;47.588;9.642;2022-07-23T05:53:13;20.60;99.90
11087;DHT22;5597;47.588;9.642;2022-07-23T05:55:39;20.60;99.90
11087;DHT22;5597;47.588;9.642;2022-07-23T05:58:05;20.70;99.90
11087;DHT22;5597;47.588;9.642;2022-07-23T06:00:30;20.70;99.90
11087;DHT22;5597;47.588;9.642;2022-07-23T06:02:56;20.80;99.90
11087;DHT22;5597;47.588;9.642;2022-07-23T06:05:23;20.80;99.90
11087;DHT22;5597;47.588;9.642;2022-07-23T06:07:49;20.80;99.90
11087;DHT22;5597;47.588;9.642;2022-07-23T06:10:15;20.80;99.90
11087;DHT22;5597;47.588;9.642;2022-07-23T06:12:40;20.80;99.90
11087;DHT22;5597;47.588;9.642;2022-07-23T06:15:07;20.80;99.90
11087;DHT22;5597;47.588;9.642;2022-07-23T06:17:32;20.90;99.90
11087;DHT22;5597;47.588;9.642;2022-07-23T06:19:58;20.90;99.90
11087;DHT22;5597;47.588;9.642;2022-07-23T06:22:24;20.90;99.90
11087;DHT22;5597;47.588;9.642;2022-07-23T06:24:49;20.90;99.90
11087;DHT22;5597;47.588;9.642;2022-07-23T06:27:16;20.90;99.90
11087;DHT22;5597;47.588;9.642;2022-07-23T06:29:42;20.90;99.90
11087;DHT22;5597;47.588;9.642;2022-07-23T06:32:07;20.90;99.90
11087;DHT22;5597;47.588;9.642;2022-07-23T06:34:33;21.00;99.90
11087;DHT22;5597;47.588;9.642;2022-07-23T06:36:59;21.00;99.90
11087;DHT22;5597;47.588;9.642;2022-07-23T06:39:25;21.00;99.90
11087;DHT22;5597;47.588;9.642;2022-07-23T06:41:50;21.00;99.90
11087;DHT22;5597;47.588;9.642;2022-07-23T06:44:16;21.10;99.90
11087;DHT22;5597;47.588;9.642;2022-07-23T06:46:42;21.10;99.90
11087;DHT22;5597;47.588;9.642;2022-07-23T06:49:08;21.20;99.90
11087;DHT22;5597;47.588;9.642;2022-07-23T06:51:34;21.20;99.90
11087;DHT22;5597;47.588;9.642;2022-07-23T06:53:59;21.20;99.90
11087;DHT22;5597;47.588;9.642;2022-07-23T06:56:25;21.30;99.90
11087;DHT22;5597;47.588;9.642;2022-07-23T06:58:50;21.30;99.90
11087;DHT22;5597;47.588;9.642;2022-07-23T07:01:16;21.30;99.90
11087;DHT22;5597;47.588;9.642;2022-07-23T07:03:42;21.30;99.90
11087;DHT22;5597;47.588;9.642;2022-07-23T07:06:07;21.30;99.90
11087;DHT22;5597;47.588;9.642;2022-07-23T07:08:33;21.30;99.90
11087;DHT22;5597;47.588;9.642;2022-07-23T07:10:59;21.30;99.90
11087;DHT22;5597;47.588;9.642;2022-07-23T07:13:24;21.30;99.90
11087;DHT22;5597;47.588;9.642;2022-07-23T07:15:50;21.30;99.90
11087;DHT22;5597;47.588;9.642;2022-07-23T07:18:15;21.30;99.90
11087;DHT22;5597;47.588;9.642;2022-07-23T07:20:41;21.30;99.90
11087;DHT22;5597;47.588;9.642;2022-07-23T07:23:06;21.30;99.90
11087;DHT22;5597;47.588;9.642;2022-07-23T07:25:32;21.40;99.90
11087;DHT22;5597;47.588;9.642;2022-07-23T07:27:57;21.50;99.90
11087;DHT22;5597;47.588;9.642;2022-07-23T07:30:23;21.60;99.90
11087;DHT22;5597;47.588;9.642;2022-07-23T07:32:49;21.60;99.90
11087;DHT22;5597;47.588;9.642;2022-07-23T07:35:15;21.70;99.90
11087;DHT22;5597;47.588;9.642;2022-07-23T07:37:41;21.70;99.90
11087;DHT22;5597;47.588;9.642;2022-07-23T07:40:07;21.70;99.90
11087;DHT22;5597;47.588;9.642;2022-07-23T07:42:32;21.70;99.90
11087;DHT22;5597;47.588;9.642;2022-07-23T07:44:58;21.80;99.90
11087;DHT22;5597;47.588;9.642;2022-07-23T07:47:24;21.70;99.90
11087;DHT22;5597;47.588;9.642;2022-07-23T07:49:50;21.60;99.90
11087;DHT22;5597;47.588;9.642;2022-07-23T07:52:15;21.60;99.90
11087;DHT22;5597;47.588;9.642;2022-07-23T07:54:41;21.60;99.90
11087;DHT22;5597;47.588;9.642;2022-07-23T07:57:08;21.50;99.90
11087;DHT22;5597;47.588;9.642;2022-07-23T07:59:33;21.40;99.90
11087;DHT22;5597;47.588;9.642;2022-07-23T08:01:59;21.30;99.90
11087;DHT22;5597;47.588;9.642;2022-07-23T08:04:24;21.30;99.90
11087;DHT22;5597;47.588;9.642;2022-07-23T08:06:50;21.30;99.90
11087;DHT22;5597;47.588;9.642;2022-07-23T08:09:15;21.30;99.90
11087;DHT22;5597;47.588;9.642;2022-07-23T08:11:41;21.30;99.90
11087;DHT22;5597;47.588;9.642;2022-07-23T08:14:07;21.30;99.90
11087;DHT22;5597;47.588;9.642;2022-07-23T08:16:32;21.30;99.90
11087;DHT22;5597;47.588;9.642;2022-07-23T08:18:58;21.30;99.90
11087;DHT22;5597;47.588;9.642;2022-07-23T08:21:23;21.20;99.90
11087;DHT22;5597;47.588;9.642;2022-07-23T08:23:49;21.20;99.90
11087;DHT22;5597;47.588;9.642;2022-07-23T08:26:15;21.10;99.90
11087;DHT22;5597;47.588;9.642;2022-07-23T08:28:40;21.20;99.90
11087;DHT22;5597;47.588;9.642;2022-07-23T08:31:06;21.30;99.90
11087;DHT22;5597;47.588;9.642;2022-07-23T08:33:32;21.40;99.90
11087;DHT22;5597;47.588;9.642;2022-07-23T08:35:58;21.50;99.90
11087;DHT22;5597;47.588;9.642;2022-07-23T08:38:24;21.70;99.90
11087;DHT22;5597;47.588;9.642;2022-07-23T08:40:54;22.00;99.90
11087;DHT22;5597;47.588;9.642;2022-07-23T08:43:25;22.20;99.90
11087;DHT22;5597;47.588;9.642;2022-07-23T08:45:52;22.30;99.90
11087;DHT22;5597;47.588;9.642;2022-07-23T08:48:20;22.40;99.90
11087;DHT22;5597;47.588;9.642;2022-07-23T08:50:49;22.40;99.90
11087;DHT22;5597;47.588;9.642;2022-07-23T08:53:16;22.40;99.90
11087;DHT22;5597;47.588;9.642;2022-07-23T08:55:46;22.40;99.90
11087;DHT22;5597;47.588;9.642;2022-07-23T08:58:12;22.40;99.90
11087;DHT22;5597;47.588;9.642;2022-07-23T09:00:38;22.40;99.90
11087;DHT22;5597;47.588;9.642;2022-07-23T09:03:04;22.40;99.90
11087;DHT22;5597;47.588;9.642;2022-07-23T09:05:30;22.40;99.90
11087;DHT22;5597;47.588;9.642;2022-07-23T09:08:15;22.40;99.90
11087;DHT22;5597;47.588;9.642;2022-07-23T09:15:50;22.50;99.90
11087;DHT22;5597;47.588;9.642;2022-07-23T09:18:16;22.50;99.90
11087;DHT22;5597;47.588;9.642;2022-07-23T09:20:43;22.50;99.90
11087;DHT22;5597;47.588;9.642;2022-07-23T09:23:08;22.50;99.90
11087;DHT22;5597;47.588;9.642;2022-07-23T09:25:34;22.50;99.90
11087;DHT22;5597;47.588;9.642;2022-07-23T09:28:00;22.40;99.90
11087;DHT22;5597;47.588;9.642;2022-07-23T09:30:31;22.40;99.90
11087;DHT22;5597;47.588;9.642;2022-07-23T09:35:52;22.30;99.90
11087;DHT22;5597;47.588;9.642;2022-07-23T09:38:19;22.30;99.90
11087;DHT22;5597;47.588;9.642;2022-07-23T09:40:45;22.30;99.90
11087;DHT22;5597;47.588;9.642;2022-07-23T09:43:13;22.40;99.90
11087;DHT22;5597;47.588;9.642;2022-07-23T09:45:50;22.40;99.90
11087;DHT22;5597;47.588;9.642;2022-07-23T09:48:16;22.40;99.90
11087;DHT22;5597;47.588;9.642;2022-07-23T09:50:43;22.40;99.90
11087;DHT22;5597;47.588;9.642;2022-07-23T09:53:10;22.40;99.90
11087;DHT22;5597;47.588;9.642;2022-07-23T09:55:49;22.50;99.90
11087;DHT22;5597;47.588;9.642;2022-07-23T09:58:15;22.50;99.90
11087;DHT22;5597;47.588;9.642;2022-07-23T10:00:42;22.60;99.90
11087;DHT22;5597;47.588;9.642;2022-07-23T10:03:09;22.60;99.90
11087;DHT22;5597;47.588;9.642;2022-07-23T10:05:37;22.70;99.90
11087;DHT22;5597;47.588;9.642;2022-07-23T10:08:03;22.70;99.90
11087;DHT22;5597;47.588;9.642;2022-07-23T10:10:28;22.70;99.90
11087;DHT22;5597;47.588;9.642;2022-07-23T10:12:56;22.80;99.90
11087;DHT22;5597;47.588;9.642;2022-07-23T10:15:34;22.80;99.90
11087;DHT22;5597;47.588;9.642;2022-07-23T10:17:59;22.80;99.90
11087;DHT22;5597;47.588;9.642;2022-07-23T10:20:25;22.80;99.90
11087;DHT22;5597;47.588;9.642;2022-07-23T10:23:02;22.90;99.90
11087;DHT22;5597;47.588;9.642;2022-07-23T10:28:42;22.90;99.90
11087;DHT22;5597;47.588;9.642;2022-07-23T10:36:32;22.70;99.90
11087;DHT22;5597;47.588;9.642;2022-07-23T10:39:10;22.60;99.90
11087;DHT22;5597;47.588;9.642;2022-07-23T10:41:40;22.50;99.90
11087;DHT22;5597;47.588;9.642;2022-07-23T10:44:16;22.50;99.90
11087;DHT22;5597;47.588;9.642;2022-07-23T10:47:02;22.50;99.90
11087;DHT22;5597;47.588;9.642;2022-07-23T10:49:49;22.50;99.90
11087;DHT22;5597;47.588;9.642;2022-07-23T10:52:28;22.40;99.90
11087;DHT22;5597;47.588;9.642;2022-07-23T10:54:55;22.40;99.90
11087;DHT22;5597;47.588;9.642;2022-07-23T10:57:25;22.40;99.90
11087;DHT22;5597;47.588;9.642;2022-07-23T11:02:26;22.40;99.90
11087;DHT22;5597;47.588;9.642;2022-07-23T11:04:53;22.40;99.90
11087;DHT22;5597;47.588;9.642;2022-07-23T11:07:19;22.30;99.90
11087;DHT22;5597;47.588;9.642;2022-07-23T11:09:45;22.30;99.90
11087;DHT22;5597;47.588;9.642;2022-07-23T11:15:10;22.20;99.90
11087;DHT22;5597;47.588;9.642;2022-07-23T11:20:22;22.20;99.90
11087;DHT22;5597;47.588;9.642;2022-07-23T11:22:51;22.20;99.90
11087;DHT22;5597;47.588;9.642;2022-07-23T11:27:50;22.20;99.90
11087;DHT22;5597;47.588;9.642;2022-07-23T11:36:00;22.10;99.90
11087;DHT22;5597;47.588;9.642;2022-07-23T11:38:27;22.10;99.90
11087;DHT22;5597;47.588;9.642;2022-07-23T11:40:56;22.10;99.90
11087;DHT22;5597;47.588;9.642;2022-07-23T11:43:24;22.10;99.90
11087;DHT22;5597;47.588;9.642;2022-07-23T11:45:58;22.10;99.90
11087;DHT22;5597;47.588;9.642;2022-07-23T11:48:29;22.10;99.90
11087;DHT22;5597;47.588;9.642;2022-07-23T11:50:56;22.10;99.90
11087;DHT22;5597;47.588;9.642;2022-07-23T11:55:52;22.00;99.90
11087;DHT22;5597;47.588;9.642;2022-07-23T11:58:18;22.00;99.90
11087;DHT22;5597;47.588;9.642;2022-07-23T12:00:44;21.90;99.90
11087;DHT22;5597;47.588;9.642;2022-07-23T12:03:10;21.90;99.90
11087;DHT22;5597;47.588;9.642;2022-07-23T12:05:37;21.80;99.90
11087;DHT22;5597;47.588;9.642;2022-07-23T12:08:08;21.70;99.90
11087;DHT22;5597;47.588;9.642;2022-07-23T12:10:37;21.60;99.90
11087;DHT22;5597;47.588;9.642;2022-07-23T12:13:05;21.60;99.90
11087;DHT22;5597;47.588;9.642;2022-07-23T12:15:34;21.60;99.90
11087;DHT22;5597;47.588;9.642;2022-07-23T12:18:03;21.60;99.90
11087;DHT22;5597;47.588;9.642;2022-07-23T12:20:32;21.70;99.90
11087;DHT22;5597;47.588;9.642;2022-07-23T12:23:01;21.80;99.90
11087;DHT22;5597;47.588;9.642;2022-07-23T12:25:35;21.90;99.90
11087;DHT22;5597;47.588;9.642;2022-07-23T12:28:28;22.00;99.90
11087;DHT22;5597;47.588;9.642;2022-07-23T12:30:55;22.00;99.90
11087;DHT22;5597;47.588;9.642;2022-07-23T12:33:36;22.00;99.90
11087;DHT22;5597;47.588;9.642;2022-07-23T12:36:07;22.00;99.90
11087;DHT22;5597;47.588;9.642;2022-07-23T12:38:46;22.10;99.90
11087;DHT22;5597;47.588;9.642;2022-07-23T12:41:14;22.20;99.90
11087;DHT22;5597;47.588;9.642;2022-07-23T12:43:42;22.30;99.90
11087;DHT22;5597;47.588;9.642;2022-07-23T12:46:10;22.50;99.90
11087;DHT22;5597;47.588;9.642;2022-07-23T12:48:39;22.80;99.90
11087;DHT22;5597;47.588;9.642;2022-07-23T12:53:52;23.70;99.90
11087;DHT22;5597;47.588;9.642;2022-07-23T12:56:39;24.10;99.90
11087;DHT22;5597;47.588;9.642;2022-07-23T12:59:10;24.40;99.90
11087;DHT22;5597;47.588;9.642;2022-07-23T13:01:38;24.60;99.90
11087;DHT22;5597;47.588;9.642;2022-07-23T13:06:33;24.90;99.90
11087;DHT22;5597;47.588;9.642;2022-07-23T13:08:59;25.00;99.90
11087;DHT22;5597;47.588;9.642;2022-07-23T13:11:25;25.20;99.90
11087;DHT22;5597;47.588;9.642;2022-07-23T13:13:51;25.40;99.90
11087;DHT22;5597;47.588;9.642;2022-07-23T13:16:16;25.50;99.90
11087;DHT22;5597;47.588;9.642;2022-07-23T13:18:42;25.50;99.90
11087;DHT22;5597;47.588;9.642;2022-07-23T13:21:08;25.70;99.90
11087;DHT22;5597;47.588;9.642;2022-07-23T13:23:34;25.90;99.90
11087;DHT22;5597;47.588;9.642;2022-07-23T13:25:59;26.00;99.90
11087;DHT22;5597;47.588;9.642;2022-07-23T13:28:25;26.30;99.90
11087;DHT22;5597;47.588;9.642;2022-07-23T13:30:51;26.60;99.90
11087;DHT22;5597;47.588;9.642;2022-07-23T13:33:20;27.00;99.90
11087;DHT22;5597;47.588;9.642;2022-07-23T13:35:47;27.40;99.90
11087;DHT22;5597;47.588;9.642;2022-07-23T13:38:13;27.80;99.90
11087;DHT22;5597;47.588;9.642;2022-07-23T13:40:41;28.20;99.90
11087;DHT22;5597;47.588;9.642;2022-07-23T13:43:09;28.30;99.90
11087;DHT22;5597;47.588;9.642;2022-07-23T13:45:35;28.30;99.90
11087;DHT22;5597;47.588;9.642;2022-07-23T13:48:01;28.20;99.90
11087;DHT22;5597;47.588;9.642;2022-07-23T13:50:27;28.30;99.90
11087;DHT22;5597;47.588;9.642;2022-07-23T13:52:53;28.40;99.90
11087;DHT22;5597;47.588;9.642;2022-07-23T13:55:19;28.50;99.90
11087;DHT22;5597;47.588;9.642;2022-07-23T13:57:45;28.70;99.90
11087;DHT22;5597;47.588;9.642;2022-07-23T14:00:11;29.00;99.90
11087;DHT22;5597;47.588;9.642;2022-07-23T14:02:38;29.10;99.90
11087;DHT22;5597;47.588;9.642;2022-07-23T14:05:05;29.10;99.90
11087;DHT22;5597;47.588;9.642;2022-07-23T14:07:32;29.10;99.90
11087;DHT22;5597;47.588;9.642;2022-07-23T14:09:57;29.10;99.90
11087;DHT22;5597;47.588;9.642;2022-07-23T14:12:23;29.00;99.90
11087;DHT22;5597;47.588;9.642;2022-07-23T14:14:49;29.10;99.90
11087;DHT22;5597;47.588;9.642;2022-07-23T14:17:14;29.10;99.90
11087;DHT22;5597;47.588;9.642;2022-07-23T14:19:40;29.10;99.90
11087;DHT22;5597;47.588;9.642;2022-07-23T14:22:06;29.10;99.90
11087;DHT22;5597;47.588;9.642;2022-07-23T14:24:31;29.00;99.90
11087;DHT22;5597;47.588;9.642;2022-07-23T14:26:57;29.00;99.90
11087;DHT22;5597;47.588;9.642;2022-07-23T14:29:22;29.20;99.90
11087;DHT22;5597;47.588;9.642;2022-07-23T14:31:48;29.50;99.90
11087;DHT22;5597;47.588;9.642;2022-07-23T14:34:14;29.70;99.90
11087;DHT22;5597;47.588;9.642;2022-07-23T14:36:39;30.00;99.90
11087;DHT22;5597;47.588;9.642;2022-07-23T14:39:05;30.20;99.90
11087;DHT22;5597;47.588;9.642;2022-07-23T14:41:34;30.40;99.90
11087;DHT22;5597;47.588;9.642;2022-07-23T14:43:59;30.50;99.90
11087;DHT22;5597;47.588;9.642;2022-07-23T14:46:25;30.60;99.90
11087;DHT22;5597;47.588;9.642;2022-07-23T14:48:52;30.90;99.90
11087;DHT22;5597;47.588;9.642;2022-07-23T14:51:17;30.90;99.90
11087;DHT22;5597;47.588;9.642;2022-07-23T14:53:43;30.80;99.90
11087;DHT22;5597;47.588;9.642;2022-07-23T14:56:09;30.70;99.90
11087;DHT22;5597;47.588;9.642;2022-07-23T14:58:35;30.60;99.90
11087;DHT22;5597;47.588;9.642;2022-07-23T15:01:01;30.40;99.90
11087;DHT22;5597;47.588;9.642;2022-07-23T15:03:26;30.20;99.90
11087;DHT22;5597;47.588;9.642;2022-07-23T15:05:52;30.00;99.90
11087;DHT22;5597;47.588;9.642;2022-07-23T15:08:17;29.90;99.90
11087;DHT22;5597;47.588;9.642;2022-07-23T15:10:43;29.70;99.90
11087;DHT22;5597;47.588;9.642;2022-07-23T15:13:09;29.40;99.90
11087;DHT22;5597;47.588;9.642;2022-07-23T15:15:34;29.00;99.90
11087;DHT22;5597;47.588;9.642;2022-07-23T15:18:00;28.70;99.90
11087;DHT22;5597;47.588;9.642;2022-07-23T15:20:25;28.60;99.90
11087;DHT22;5597;47.588;9.642;2022-07-23T15:22:51;28.50;99.90
11087;DHT22;5597;47.588;9.642;2022-07-23T15:25:17;28.60;99.90
11087;DHT22;5597;47.588;9.642;2022-07-23T15:27:42;28.80;99.90
11087;DHT22;5597;47.588;9.642;2022-07-23T15:30:08;29.20;99.90
11087;DHT22;5597;47.588;9.642;2022-07-23T15:32:34;29.50;99.90
11087;DHT22;5597;47.588;9.642;2022-07-23T15:35:00;29.50;99.90
11087;DHT22;5597;47.588;9.642;2022-07-23T15:37:26;29.50;99.90
11087;DHT22;5597;47.588;9.642;2022-07-23T15:39:51;29.50;99.90
11087;DHT22;5597;47.588;9.642;2022-07-23T15:42:17;29.40;99.90
11087;DHT22;5597;47.588;9.642;2022-07-23T15:44:44;29.60;99.90
11087;DHT22;5597;47.588;9.642;2022-07-23T15:47:13;29.70;99.90
11087;DHT22;5597;47.588;9.642;2022-07-23T15:49:39;29.70;99.90
11087;DHT22;5597;47.588;9.642;2022-07-23T15:52:04;29.50;99.90
11087;DHT22;5597;47.588;9.642;2022-07-23T15:54:30;29.50;99.90
11087;DHT22;5597;47.588;9.642;2022-07-23T15:56:56;29.40;99.90
11087;DHT22;5597;47.588;9.642;2022-07-23T15:59:22;29.50;99.90
11087;DHT22;5597;47.588;9.642;2022-07-23T16:01:47;29.60;99.90
11087;DHT22;5597;47.588;9.642;2022-07-23T16:04:13;29.80;99.90
11087;DHT22;5597;47.588;9.642;2022-07-23T16:06:39;29.80;99.90
11087;DHT22;5597;47.588;9.642;2022-07-23T16:09:07;29.80;99.90
11087;DHT22;5597;47.588;9.642;2022-07-23T16:11:33;29.70;99.90
11087;DHT22;5597;47.588;9.642;2022-07-23T16:13:59;29.70;99.90
11087;DHT22;5597;47.588;9.642;2022-07-23T16:16:25;29.80;99.90
11087;DHT22;5597;47.588;9.642;2022-07-23T16:18:54;29.90;99.90
11087;DHT22;5597;47.588;9.642;2022-07-23T16:21:20;30.00;99.90